createdAt,value
2018-12-30T00:02:00.673Z,26.50
2018-12-30T00:04:41.061Z,26.50
2018-12-30T00:07:21.210Z,26.13
2018-12-30T00:10:01.448Z,25.53
2018-12-30T00:12:41.394Z,25.83
2018-12-30T00:15:22.403Z,25.70
2018-12-30T00:18:05.691Z,25.87
2018-12-30T00:20:46.714Z,26.33
2018-12-30T00:23:27.794Z,25.17
2018-12-30T00:26:07.805Z,25.57
2018-12-30T00:28:50.826Z,25.57
2018-12-30T00:31:31.365Z,25.80
2018-12-30T00:34:11.250Z,25.30
2018-12-30T00:36:54.488Z,25.63
2018-12-30T00:39:36.733Z,26.93
2018-12-30T00:42:17.608Z,23.80
2018-12-30T00:44:58.030Z,26.43
2018-12-30T00:47:38.192Z,24.17
2018-12-30T00:50:18.282Z,25.00
2018-12-30T00:53:00.746Z,25.77
2018-12-30T00:55:40.678Z,25.30
2018-12-30T00:58:20.999Z,24.83
2018-12-30T01:01:01.896Z,21.33
2018-12-30T01:03:41.984Z,24.80
2018-12-30T01:06:21.969Z,24.60
2018-12-30T01:09:03.738Z,25.07
2018-12-30T01:11:43.982Z,22.93
2018-12-30T01:14:24.302Z,24.67
2018-12-30T01:17:04.239Z,24.63
2018-12-30T01:19:44.465Z,25.27
2018-12-30T01:22:24.499Z,23.20
2018-12-30T01:25:04.950Z,23.00
2018-12-30T01:27:44.738Z,23.57
2018-12-30T01:30:27.851Z,24.20
2018-12-30T01:33:11.361Z,23.00
2018-12-30T01:35:52.105Z,23.50
2018-12-30T01:38:33.206Z,24.27
2018-12-30T01:41:13.258Z,24.33
2018-12-30T01:43:53.505Z,23.50
2018-12-30T01:46:34.076Z,23.27
2018-12-30T01:49:13.980Z,22.53
2018-12-30T01:51:41.745Z,23.10
2018-12-30T01:54:22.398Z,24.50
2018-12-30T01:57:02.565Z,23.33
2018-12-30T01:59:42.803Z,21.57
2018-12-30T02:02:10.885Z,21.87
2018-12-30T02:04:50.934Z,24.23
2018-12-30T02:07:30.970Z,22.43
2018-12-30T02:10:10.913Z,21.73
2018-12-30T02:12:50.842Z,22.50
2018-12-30T02:15:30.887Z,21.80
2018-12-30T02:18:11.918Z,21.40
2018-12-30T02:20:52.122Z,21.97
2018-12-30T02:23:32.310Z,22.00
2018-12-30T02:26:12.614Z,20.90
2018-12-30T02:31:40.278Z,19.87
2018-12-30T02:34:27.464Z,21.17
2018-12-30T02:37:07.480Z,21.03
2018-12-30T02:39:47.750Z,20.80
2018-12-30T02:42:27.807Z,20.20
2018-12-30T02:45:07.977Z,21.27
2018-12-30T02:47:48.203Z,20.20
2018-12-30T02:50:28.265Z,19.87
2018-12-30T02:53:09.232Z,20.20
2018-12-30T02:55:49.205Z,19.53
2018-12-30T02:58:29.558Z,18.63
2018-12-30T03:01:09.502Z,19.33
2018-12-30T03:03:52.425Z,19.10
2018-12-30T03:06:34.551Z,19.80
2018-12-30T03:09:17.738Z,20.70
2018-12-30T03:11:58.030Z,19.67
2018-12-30T03:14:38.485Z,20.30
2018-12-30T03:17:18.296Z,19.00
2018-12-30T03:19:58.452Z,20.10
2018-12-30T03:22:39.210Z,21.00
2018-12-30T03:25:19.342Z,19.13
2018-12-30T03:27:59.254Z,18.90
2018-12-30T03:30:39.400Z,18.97
2018-12-30T03:33:19.558Z,19.53
2018-12-30T03:35:59.984Z,19.83
2018-12-30T03:38:40.068Z,19.60
2018-12-30T03:41:20.437Z,19.43
2018-12-30T03:44:00.630Z,19.20
2018-12-30T03:46:43.190Z,18.73
2018-12-30T03:49:23.906Z,19.03
2018-12-30T03:52:08.291Z,17.93
2018-12-30T03:54:46.021Z,19.30
2018-12-30T03:57:27.463Z,19.03
2018-12-30T03:59:55.222Z,18.30
2018-12-30T04:02:42.331Z,18.80
2018-12-30T04:05:22.250Z,19.20
2018-12-30T04:08:02.179Z,17.50
2018-12-30T04:10:42.139Z,18.57
2018-12-30T04:13:22.231Z,19.67
2018-12-30T04:16:02.455Z,18.23
2018-12-30T04:18:42.557Z,17.50
2018-12-30T04:21:22.810Z,18.13
2018-12-30T04:24:02.892Z,19.00
2018-12-30T04:26:43.833Z,17.80
2018-12-30T04:29:23.777Z,18.83
2018-12-30T04:32:04.014Z,19.23
2018-12-30T04:34:44.159Z,17.80
2018-12-30T04:37:24.163Z,18.23
2018-12-30T04:40:04.179Z,17.67
2018-12-30T04:42:44.376Z,17.10
2018-12-30T04:45:24.403Z,18.13
2018-12-30T04:47:52.153Z,19.13
2018-12-30T04:50:32.450Z,18.13
2018-12-30T04:53:12.647Z,18.47
2018-12-30T04:55:55.252Z,18.27
2018-12-30T04:58:35.973Z,16.93
2018-12-30T05:01:16.138Z,17.93
2018-12-30T05:03:58.054Z,18.17
2018-12-30T05:06:38.434Z,18.97
2018-12-30T05:09:18.567Z,18.57
2018-12-30T05:11:58.876Z,17.73
2018-12-30T05:14:38.899Z,17.90
2018-12-30T05:17:18.930Z,17.40
2018-12-30T05:19:58.933Z,18.17
2018-12-30T05:22:39.142Z,17.40
2018-12-30T05:25:19.244Z,17.43
2018-12-30T05:27:59.062Z,17.23
2018-12-30T05:30:39.401Z,17.30
2018-12-30T05:33:20.135Z,17.37
2018-12-30T05:36:02.110Z,18.33
2018-12-30T05:38:42.422Z,16.90
2018-12-30T05:41:22.482Z,16.20
2018-12-30T05:44:02.552Z,16.70
2018-12-30T05:46:43.814Z,16.90
2018-12-30T05:49:24.162Z,16.90
2018-12-30T05:52:04.882Z,16.17
2018-12-30T05:54:45.059Z,17.23
2018-12-30T05:57:25.315Z,17.93
2018-12-30T06:00:05.437Z,15.80
2018-12-30T06:02:45.545Z,16.87
2018-12-30T06:05:25.755Z,17.03
2018-12-30T06:08:06.338Z,16.63
2018-12-30T06:10:46.706Z,15.83
2018-12-30T06:13:28.145Z,16.73
2018-12-30T06:16:08.326Z,16.43
2018-12-30T06:18:48.458Z,16.03
2018-12-30T06:21:28.825Z,17.43
2018-12-30T06:24:09.163Z,16.67
2018-12-30T06:26:49.550Z,16.80
2018-12-30T06:29:29.435Z,16.70
2018-12-30T06:32:09.593Z,15.73
2018-12-30T06:34:49.983Z,18.27
2018-12-30T06:37:30.000Z,16.93
2018-12-30T06:40:11.516Z,15.93
2018-12-30T06:42:51.910Z,15.77
2018-12-30T06:45:32.155Z,16.87
2018-12-30T06:48:12.259Z,17.10
2018-12-30T06:50:52.354Z,17.40
2018-12-30T06:53:32.448Z,15.87
2018-12-30T06:56:12.324Z,16.07
2018-12-30T06:58:52.546Z,14.77
2018-12-30T07:01:32.659Z,15.37
2018-12-30T07:04:12.855Z,16.17
2018-12-30T07:06:53.084Z,15.73
2018-12-30T07:09:34.762Z,16.40
2018-12-30T07:12:14.666Z,16.27
2018-12-30T07:14:54.718Z,16.77
2018-12-30T07:17:34.882Z,15.57
2018-12-30T07:20:14.870Z,16.70
2018-12-30T07:22:55.025Z,15.40
2018-12-30T07:25:35.103Z,16.07
2018-12-30T07:28:15.523Z,16.70
2018-12-30T07:30:55.794Z,15.17
2018-12-30T07:33:36.203Z,16.33
2018-12-30T07:36:19.126Z,16.47
2018-12-30T07:38:59.692Z,16.37
2018-12-30T07:41:40.234Z,16.93
2018-12-30T07:44:22.394Z,14.83
2018-12-30T07:47:02.747Z,16.67
2018-12-30T07:49:43.466Z,16.20
2018-12-30T07:52:23.531Z,15.33
2018-12-30T07:55:03.518Z,16.27
2018-12-30T07:57:43.550Z,15.50
2018-12-30T08:00:25.858Z,15.83
2018-12-30T08:03:05.894Z,16.43
2018-12-30T08:05:45.862Z,15.30
2018-12-30T08:08:25.841Z,14.67
2018-12-30T08:11:05.902Z,15.20
2018-12-30T08:13:45.958Z,15.27
2018-12-30T08:16:26.027Z,14.80
2018-12-30T08:19:05.948Z,15.10
2018-12-30T08:21:46.358Z,14.80
2018-12-30T08:24:27.527Z,14.80
2018-12-30T08:27:11.105Z,15.33
2018-12-30T08:29:51.075Z,15.73
2018-12-30T08:32:30.956Z,14.83
2018-12-30T08:35:11.101Z,14.57
2018-12-30T08:37:51.252Z,14.97
2018-12-30T08:40:31.293Z,14.47
2018-12-30T08:43:11.567Z,15.30
2018-12-30T08:45:51.743Z,15.27
2018-12-30T08:48:31.749Z,14.97
2018-12-30T08:51:11.738Z,14.20
2018-12-30T08:53:54.757Z,14.90
2018-12-30T08:56:22.421Z,15.60
2018-12-30T08:59:03.050Z,14.50
2018-12-30T09:01:43.153Z,14.37
2018-12-30T09:04:23.339Z,15.00
2018-12-30T09:07:06.052Z,14.13
2018-12-30T09:09:46.619Z,13.67
2018-12-30T09:12:26.852Z,14.27
2018-12-30T09:15:06.928Z,14.10
2018-12-30T09:17:47.138Z,14.33
2018-12-30T09:20:27.300Z,13.23
2018-12-30T09:23:07.279Z,13.47
2018-12-30T09:25:47.356Z,13.93
2018-12-30T09:28:27.605Z,14.67
2018-12-30T09:31:07.754Z,14.23
2018-12-30T09:33:47.822Z,13.27
2018-12-30T09:36:28.054Z,12.83
2018-12-30T09:39:08.007Z,13.13
2018-12-30T09:41:48.200Z,13.77
2018-12-30T09:44:30.097Z,13.13
2018-12-30T09:47:10.462Z,13.37
2018-12-30T09:49:50.531Z,12.10
2018-12-30T09:52:30.536Z,13.10
2018-12-30T09:55:10.597Z,12.93
2018-12-30T09:57:50.614Z,12.53
2018-12-30T10:00:34.761Z,13.10
2018-12-30T10:03:16.047Z,12.97
2018-12-30T10:05:55.837Z,12.80
2018-12-30T10:08:35.775Z,13.73
2018-12-30T10:11:15.985Z,13.73
2018-12-30T10:13:56.386Z,12.10
2018-12-30T10:16:37.074Z,13.53
2018-12-30T10:19:17.202Z,13.10
2018-12-30T10:21:57.202Z,13.87
2018-12-30T10:24:37.218Z,12.80
2018-12-30T10:27:17.241Z,13.17
2018-12-30T10:29:44.921Z,13.23
2018-12-30T10:32:25.414Z,13.37
2018-12-30T10:35:05.455Z,13.83
2018-12-30T10:37:45.589Z,13.53
2018-12-30T10:40:25.774Z,12.23
2018-12-30T10:43:06.474Z,13.23
2018-12-30T10:45:46.474Z,13.37
2018-12-30T10:48:26.564Z,12.67
2018-12-30T10:51:06.654Z,13.00
2018-12-30T10:53:46.714Z,13.83
2018-12-30T10:56:27.018Z,13.83
2018-12-30T10:59:10.252Z,11.17
2018-12-30T11:01:50.390Z,13.67
2018-12-30T11:04:30.472Z,13.87
2018-12-30T11:07:10.590Z,13.40
2018-12-30T11:09:50.598Z,13.23
2018-12-30T11:12:30.509Z,12.20
2018-12-30T11:15:10.646Z,12.87
2018-12-30T11:17:50.771Z,12.23
2018-12-30T11:20:32.176Z,12.33
2018-12-30T11:23:12.118Z,12.13
2018-12-30T11:25:52.177Z,12.93
2018-12-30T11:28:32.064Z,13.37
2018-12-30T11:31:13.957Z,12.20
2018-12-30T11:33:54.030Z,12.53
2018-12-30T11:36:35.054Z,12.13
2018-12-30T11:39:15.087Z,12.00
2018-12-30T11:41:55.062Z,11.93
2018-12-30T11:44:35.913Z,11.23
2018-12-30T11:47:15.945Z,12.40
2018-12-30T11:49:56.328Z,11.70
2018-12-30T11:52:36.842Z,11.90
2018-12-30T11:55:16.813Z,12.57
2018-12-30T11:57:56.775Z,12.47
2018-12-30T12:00:36.878Z,12.03
2018-12-30T12:03:16.873Z,11.83
2018-12-30T12:05:57.129Z,12.37
2018-12-30T12:08:37.335Z,11.93
2018-12-30T12:11:17.272Z,11.70
2018-12-30T12:13:57.218Z,12.33
2018-12-30T12:16:37.451Z,12.00
2018-12-30T12:19:17.612Z,12.27
2018-12-30T12:21:57.422Z,12.00
2018-12-30T12:24:37.541Z,12.23
2018-12-30T12:27:17.576Z,12.07
2018-12-30T12:29:57.862Z,12.23
2018-12-30T12:32:37.965Z,12.30
2018-12-30T12:35:18.476Z,12.10
2018-12-30T12:37:58.618Z,12.27
2018-12-30T12:40:40.392Z,11.53
2018-12-30T12:43:20.603Z,12.40
2018-12-30T12:46:00.769Z,12.67
2018-12-30T12:48:40.868Z,12.43
2018-12-30T12:51:23.042Z,12.47
2018-12-30T12:54:02.950Z,12.00
2018-12-30T12:56:47.212Z,12.43
2018-12-30T12:59:29.215Z,12.10
2018-12-30T13:02:09.212Z,12.33
2018-12-30T13:04:49.336Z,11.63
2018-12-30T13:07:29.664Z,11.13
2018-12-30T13:10:10.532Z,13.20
2018-12-30T13:12:50.550Z,10.67
2018-12-30T13:15:30.671Z,11.47
2018-12-30T13:18:10.764Z,11.33
2018-12-30T13:20:50.807Z,10.90
2018-12-30T13:23:31.005Z,11.40
2018-12-30T13:26:10.913Z,12.10
2018-12-30T13:28:51.381Z,10.67
2018-12-30T13:31:19.181Z,10.20
2018-12-30T13:33:46.896Z,9.90
2018-12-30T13:36:26.881Z,10.60
2018-12-30T13:39:06.903Z,9.97
2018-12-30T13:41:47.721Z,11.07
2018-12-30T13:44:27.750Z,11.10
2018-12-30T13:47:07.796Z,10.67
2018-12-30T13:49:48.333Z,11.77
2018-12-30T13:52:28.440Z,10.47
2018-12-30T13:55:11.484Z,9.93
2018-12-30T13:57:51.664Z,10.87
2018-12-30T14:00:31.723Z,10.60
2018-12-30T14:03:12.114Z,10.60
2018-12-30T14:05:52.581Z,10.33
2018-12-30T14:08:32.583Z,11.17
2018-12-30T14:11:12.706Z,10.37
2018-12-30T14:13:52.853Z,10.63
2018-12-30T14:16:32.762Z,10.63
2018-12-30T14:19:13.160Z,11.47
2018-12-30T14:21:53.311Z,10.47
2018-12-30T14:24:33.352Z,10.47
2018-12-30T14:27:13.356Z,10.97
2018-12-30T14:29:53.677Z,10.97
2018-12-30T14:32:33.835Z,11.10
2018-12-30T14:35:13.830Z,10.70
2018-12-30T14:37:53.995Z,10.80
2018-12-30T14:40:37.215Z,10.40
2018-12-30T14:43:17.316Z,10.90
2018-12-30T14:45:57.482Z,10.87
2018-12-30T14:48:38.734Z,10.83
2018-12-30T14:51:18.812Z,11.33
2018-12-30T14:53:58.827Z,10.63
2018-12-30T14:56:38.946Z,11.13
2018-12-30T14:59:06.660Z,11.73
2018-12-30T15:01:34.375Z,10.87
2018-12-30T15:04:02.080Z,10.60
2018-12-30T15:06:29.837Z,10.63
2018-12-30T15:08:57.525Z,10.93
2018-12-30T15:11:25.165Z,11.07
2018-12-30T15:13:52.827Z,11.47
2018-12-30T15:16:20.469Z,11.93
2018-12-30T15:18:48.134Z,10.87
2018-12-30T15:21:15.814Z,11.80
2018-12-30T15:23:43.528Z,11.70
2018-12-30T15:26:11.281Z,11.37
2018-12-30T15:28:39.109Z,12.20
2018-12-30T15:31:06.923Z,11.47
2018-12-30T15:33:34.601Z,11.43
2018-12-30T15:36:02.370Z,12.27
2018-12-30T15:38:30.058Z,11.70
2018-12-30T15:40:57.759Z,11.87
2018-12-30T15:43:25.475Z,11.60
2018-12-30T15:45:53.290Z,11.27
2018-12-30T15:48:20.937Z,12.40
2018-12-30T15:50:48.642Z,11.90
2018-12-30T15:53:16.388Z,12.00
2018-12-30T15:55:44.024Z,12.23
2018-12-30T15:58:24.762Z,11.77
2018-12-30T16:01:04.869Z,11.67
2018-12-30T16:03:45.059Z,11.30
2018-12-30T16:06:25.223Z,11.33
2018-12-30T16:09:05.222Z,12.47
2018-12-30T16:11:45.607Z,11.93
2018-12-30T16:14:25.860Z,11.73
2018-12-30T16:17:06.107Z,11.57
2018-12-30T16:19:46.102Z,12.07
2018-12-30T16:22:26.281Z,11.77
2018-12-30T16:25:06.637Z,11.60
2018-12-30T16:27:46.667Z,12.20
2018-12-30T16:30:26.674Z,11.47
2018-12-30T16:33:10.599Z,13.27
2018-12-30T16:35:51.118Z,12.50
2018-12-30T16:38:31.202Z,14.93
2018-12-30T16:41:11.368Z,14.10
2018-12-30T16:43:51.504Z,16.90
2018-12-30T16:46:31.523Z,12.80
2018-12-30T16:49:11.518Z,14.97
2018-12-30T16:51:51.738Z,15.57
2018-12-30T16:54:31.886Z,14.23
2018-12-30T16:56:59.672Z,12.93
2018-12-30T16:59:39.860Z,12.60
2018-12-30T17:02:19.883Z,12.23
2018-12-30T17:05:00.250Z,13.83
2018-12-30T17:07:40.317Z,11.87
2018-12-30T17:10:20.460Z,13.77
2018-12-30T17:13:00.486Z,13.17
2018-12-30T17:15:40.554Z,13.30
2018-12-30T17:18:20.428Z,13.00
2018-12-30T17:21:01.530Z,13.40
2018-12-30T17:23:41.630Z,12.33
2018-12-30T17:26:21.680Z,12.47
2018-12-30T17:29:01.821Z,12.17
2018-12-30T17:31:41.905Z,13.43
2018-12-30T17:34:22.019Z,12.53
2018-12-30T17:37:01.910Z,13.93
2018-12-30T17:42:22.925Z,14.93
2018-12-30T17:45:02.897Z,12.93
2018-12-30T17:47:42.982Z,14.10
2018-12-30T17:50:23.117Z,12.43
2018-12-30T17:53:03.291Z,12.33
2018-12-30T17:55:50.608Z,12.47
2018-12-30T17:58:25.527Z,12.20
2018-12-30T18:01:05.727Z,12.77
2018-12-30T18:03:45.865Z,12.80
2018-12-30T18:06:29.638Z,12.33
2018-12-30T18:09:10.367Z,12.50
2018-12-30T18:11:50.613Z,12.97
2018-12-30T18:14:30.598Z,13.30
2018-12-30T18:17:10.655Z,13.60
2018-12-30T18:19:51.717Z,13.67
2018-12-30T18:22:19.473Z,13.67
2018-12-30T18:24:59.728Z,12.90
2018-12-30T18:27:27.473Z,13.90
2018-12-30T18:29:55.129Z,12.57
2018-12-30T18:32:35.326Z,13.33
2018-12-30T18:35:16.050Z,12.57
2018-12-30T18:37:56.312Z,12.77
2018-12-30T18:40:36.263Z,13.00
2018-12-30T18:43:16.404Z,13.80
2018-12-30T18:45:56.567Z,12.67
2018-12-30T18:48:36.810Z,13.80
2018-12-30T18:51:17.017Z,13.13
2018-12-30T18:53:57.110Z,12.13
2018-12-30T18:56:24.821Z,12.80
2018-12-30T19:13:15.944Z,13.53
2018-12-30T19:16:16.143Z,13.03
2018-12-30T19:19:16.521Z,13.10
2018-12-30T19:22:17.390Z,12.63
2018-12-30T19:25:19.529Z,13.43
2018-12-30T19:28:20.490Z,12.40
2018-12-30T19:31:00.588Z,12.23
2018-12-30T19:33:41.055Z,12.87
2018-12-30T19:36:21.362Z,12.50
2018-12-30T19:39:01.386Z,11.50
2018-12-30T19:41:43.563Z,13.17
2018-12-30T19:44:23.779Z,12.80
2018-12-30T19:47:03.921Z,12.43
2018-12-30T19:49:43.931Z,11.53
2018-12-30T19:52:24.026Z,12.33
2018-12-30T19:55:04.554Z,12.33
2018-12-30T19:57:44.444Z,11.70
2018-12-30T20:00:12.257Z,12.67
2018-12-30T20:02:40.037Z,12.93
2018-12-30T20:05:07.848Z,12.60
2018-12-30T20:07:35.584Z,11.43
2018-12-30T20:10:04.006Z,12.10
2018-12-30T20:12:31.751Z,11.57
2018-12-30T20:15:12.830Z,11.63
2018-12-30T20:17:53.175Z,12.20
2018-12-30T20:20:33.284Z,12.00
2018-12-30T20:23:42.166Z,11.77
2018-12-30T20:26:29.616Z,11.33
2018-12-30T20:29:04.806Z,12.60
2018-12-30T20:31:45.373Z,12.40
2018-12-30T20:34:26.817Z,11.93
2018-12-30T20:37:07.139Z,12.13
2018-12-30T20:39:47.289Z,12.30
2018-12-30T20:42:27.818Z,12.50
2018-12-30T20:45:07.668Z,11.73
2018-12-30T20:47:47.732Z,12.83
2018-12-30T20:50:27.946Z,13.00
2018-12-30T20:53:08.191Z,12.07
2018-12-30T20:55:48.347Z,12.60
2018-12-30T20:58:28.670Z,12.37
2018-12-30T21:01:09.097Z,13.47
2018-12-30T21:03:50.029Z,12.03
2018-12-30T21:06:30.178Z,12.37
2018-12-30T21:09:10.176Z,12.90
2018-12-30T21:11:50.691Z,13.87
2018-12-30T21:14:30.843Z,12.53
2018-12-30T21:17:11.292Z,12.97
2018-12-30T21:19:51.401Z,13.77
2018-12-30T21:22:35.207Z,12.50
2018-12-30T21:25:15.585Z,13.57
2018-12-30T21:27:55.682Z,12.83
2018-12-30T21:30:36.035Z,13.63
2018-12-30T21:33:16.316Z,13.57
2018-12-30T21:35:56.431Z,13.77
2018-12-30T21:38:36.619Z,13.03
2018-12-30T21:41:16.968Z,12.83
2018-12-30T21:43:57.101Z,13.73
2018-12-30T21:46:37.500Z,13.13
2018-12-30T21:49:17.686Z,12.50
2018-12-30T21:51:57.894Z,13.23
2018-12-30T21:54:38.050Z,12.67
2018-12-30T21:57:18.194Z,14.03
2018-12-30T21:59:45.864Z,12.80
2018-12-30T22:02:33.066Z,13.87
2018-12-30T22:05:13.035Z,13.93
2018-12-30T22:07:53.205Z,14.93
2018-12-30T22:10:33.348Z,15.13
2018-12-30T22:13:13.701Z,13.93
2018-12-30T22:15:53.754Z,13.00
2018-12-30T22:18:33.709Z,13.87
2018-12-30T22:21:13.841Z,14.23
2018-12-30T22:23:41.511Z,13.93
2018-12-30T22:26:28.631Z,14.53
2018-12-30T22:29:08.615Z,13.70
2018-12-30T22:31:48.964Z,14.53
2018-12-30T22:34:28.890Z,14.63
2018-12-30T22:37:09.162Z,14.73
2018-12-30T22:39:49.933Z,15.20
2018-12-30T22:42:32.918Z,15.17
2018-12-30T22:45:12.047Z,14.03
2018-12-30T22:47:51.998Z,14.60
2018-12-30T22:50:32.105Z,15.23
2018-12-30T22:53:12.241Z,14.97
2018-12-30T22:55:52.364Z,15.27
2018-12-30T22:58:32.537Z,16.03
2018-12-30T23:01:17.038Z,15.70
2018-12-30T23:03:57.169Z,15.00
2018-12-30T23:06:37.092Z,15.90
2018-12-30T23:09:06.333Z,14.60
2018-12-30T23:11:46.466Z,14.97
2018-12-30T23:14:26.756Z,14.37
2018-12-30T23:17:06.618Z,14.40
2018-12-30T23:19:47.013Z,13.30
2018-12-30T23:22:27.230Z,13.50
2018-12-30T23:25:07.310Z,14.10
2018-12-30T23:27:47.266Z,14.17
2018-12-30T23:30:27.522Z,13.00
2018-12-30T23:32:55.297Z,13.30
2018-12-30T23:35:35.994Z,13.90
2018-12-30T23:38:16.277Z,12.33
2018-12-30T23:40:56.711Z,12.53
2018-12-30T23:43:36.403Z,13.83
2018-12-30T23:46:17.190Z,13.47
2018-12-30T23:48:57.761Z,13.50
2018-12-30T23:51:37.793Z,13.23
2018-12-30T23:54:18.012Z,13.50
2018-12-30T23:56:58.104Z,13.10
2018-12-30T23:59:38.374Z,14.13
